Time;durP1;ratioP1;P1;durP2;ratioP2;P2;SDS_P1;SDS_P2;PMS_P1;PMS_P2;Temp;Humidity;BMP_temperature;BMP_pressure;BME280_temperature;BME280_humidity;BME280_pressure;Samples;Min_cycle;Max_cycle;Signal;HPM_P1;HPM_P2
2020/12/12 00:02:31;;;;;;;11.75;5.72;;;;;;;-4.02;54.84;101993.36;1734714;83;21754;-70
2020/12/12 00:05:05;;;;;;;12.35;6.10;;;;;;;-3.98;54.74;101989.93;1733595;83;21807;-69
2020/12/12 00:07:37;;;;;;;11.57;5.50;;;;;;;-3.93;54.63;101978.41;1734055;83;21236;-69
2020/12/12 00:10:11;;;;;;;12.40;5.45;;;;;;;-3.90;54.51;101977.98;1733542;83;21707;-69
2020/12/12 00:12:44;;;;;;;14.90;7.15;;;;;;;-3.90;54.63;101980.97;1734613;83;21601;-68
2020/12/12 00:15:18;;;;;;;16.23;6.80;;;;;;;-3.90;54.63;101979.69;1733435;82;21184;-69
2020/12/12 00:17:51;;;;;;;13.10;5.97;;;;;;;-3.92;54.74;101971.17;1734071;83;21299;-71
2020/12/12 00:20:25;;;;;;;14.87;5.90;;;;;;;-3.92;54.89;101973.30;1733196;83;21201;-69
2020/12/12 00:22:58;;;;;;;15.10;6.37;;;;;;;-3.90;54.81;101963.91;1735187;83;21260;-69
2020/12/12 00:25:31;;;;;;;20.88;5.90;;;;;;;-3.86;54.76;101963.46;1733576;83;21311;-68
2020/12/12 00:28:04;;;;;;;14.10;5.90;;;;;;;-3.83;54.57;101965.60;1720251;83;21255;-69
2020/12/12 00:30:37;;;;;;;13.45;5.40;;;;;;;-3.86;54.36;101950.25;1719982;83;21191;-69
2020/12/12 00:33:11;;;;;;;14.73;5.78;;;;;;;-3.92;54.32;101957.09;1719438;83;21368;-69
2020/12/12 00:35:44;;;;;;;10.78;5.75;;;;;;;-3.94;54.61;101958.81;1719530;82;21288;-72
2020/12/12 00:38:17;;;;;;;12.53;5.00;;;;;;;-3.91;54.64;101956.22;1720411;83;21155;-69
2020/12/12 00:41:00;;;;;;;12.00;5.95;;;;;;;-3.90;54.56;101954.10;1720131;83;21808;-69
2020/12/12 00:43:34;;;;;;;13.35;5.40;;;;;;;-3.92;54.61;101945.58;1719424;83;21258;-69
2020/12/12 00:46:07;;;;;;;11.48;5.40;;;;;;;-3.91;54.56;101940.88;1720510;83;21302;-69
2020/12/12 00:48:40;;;;;;;11.38;5.95;;;;;;;-3.98;54.72;101932.80;1720305;83;21255;-69
2020/12/12 00:51:13;;;;;;;10.98;4.70;;;;;;;-4.02;54.87;101944.76;1726972;82;21258;-69
2020/12/12 00:53:45;;;;;;;10.35;4.55;;;;;;;-4.03;54.99;101937.06;1719661;83;21306;-70
2020/12/12 00:56:18;;;;;;;15.33;5.53;;;;;;;-4.05;55.21;101933.25;1720885;83;21246;-69
2020/12/12 00:58:52;;;;;;;8.57;4.43;;;;;;;-4.03;55.30;101932.81;1720616;83;21151;-69
2020/12/12 01:01:24;;;;;;;12.60;5.45;;;;;;;-4.02;55.40;101928.13;1707975;82;21776;-69
2020/12/12 01:03:58;;;;;;;14.78;6.17;;;;;;;-3.97;55.50;101921.30;1738555;82;21291;-69
2020/12/12 01:06:30;;;;;;;11.65;5.25;;;;;;;-3.88;55.52;101919.13;1758648;81;21525;-69
2020/12/12 01:09:03;;;;;;;13.45;5.60;;;;;;;-3.81;55.54;101911.84;1763955;81;21180;-69
2020/12/12 01:11:37;;;;;;;9.98;5.33;;;;;;;-3.78;55.63;101920.80;1763492;81;21671;-69
2020/12/12 01:14:10;;;;;;;17.27;5.80;;;;;;;-3.76;55.83;101913.55;1763094;81;21240;-69
2020/12/12 01:16:43;;;;;;;12.23;5.80;;;;;;;-3.72;55.98;101906.69;1762775;81;21257;-69
2020/12/12 01:19:16;;;;;;;9.38;4.90;;;;;;;-3.67;56.00;101907.52;1764232;81;21249;-69
2020/12/12 01:21:49;;;;;;;14.58;5.65;;;;;;;-3.64;56.14;101897.28;1756628;82;21257;-70
2020/12/12 01:24:22;;;;;;;20.27;6.35;;;;;;;-3.63;56.23;101908.78;1762390;81;21180;-70
2020/12/12 01:26:55;;;;;;;23.30;5.90;;;;;;;-3.59;56.33;101905.37;1755611;81;21291;-69
2020/12/12 01:29:28;;;;;;;11.00;5.22;;;;;;;-3.63;56.31;101892.14;1769153;81;21299;-70
2020/12/12 01:32:02;;;;;;;11.95;5.65;;;;;;;-3.65;56.39;101891.72;1762481;81;21248;-69
2020/12/12 01:34:35;;;;;;;11.25;5.47;;;;;;;-3.65;56.55;101888.74;1761717;81;21778;-69
2020/12/12 01:37:08;;;;;;;15.48;6.22;;;;;;;-3.61;56.69;101890.87;1761867;81;21335;-70
2020/12/12 01:39:41;;;;;;;14.03;6.33;;;;;;;-3.55;56.60;101894.66;1761644;81;21134;-69
2020/12/12 01:42:14;;;;;;;11.22;5.10;;;;;;;-3.54;56.62;101891.27;1762617;81;21253;-69
2020/12/12 01:44:47;;;;;;;15.72;5.67;;;;;;;-3.52;56.66;101899.78;1762154;81;21323;-70
2020/12/12 01:47:19;;;;;;;10.60;4.67;;;;;;;-3.51;56.68;101900.22;1762228;81;21252;-70
2020/12/12 01:49:53;;;;;;;9.63;5.15;;;;;;;-3.54;56.74;101893.83;1761499;81;21145;-69
2020/12/12 01:52:26;;;;;;;11.55;5.22;;;;;;;-3.55;56.97;101885.28;1763012;81;21288;-69
2020/12/12 01:54:59;;;;;;;10.63;4.50;;;;;;;-3.50;57.02;101877.58;1763115;81;21296;-68
2020/12/12 01:57:32;;;;;;;10.63;4.97;;;;;;;-3.50;57.00;101872.45;1762372;81;21550;-68
2020/12/12 02:00:05;;;;;;;19.50;6.50;;;;;;;-3.55;57.11;101872.48;1762095;81;22000;-68
2020/12/12 02:02:38;;;;;;;10.28;5.53;;;;;;;-3.57;57.34;101869.09;1761172;81;21324;-69
2020/12/12 02:05:12;;;;;;;11.45;5.28;;;;;;;-3.54;57.46;101872.06;1762484;81;21256;-68
2020/12/12 02:07:45;;;;;;;12.88;5.30;;;;;;;-3.51;57.53;101872.05;1762399;81;21185;-69
2020/12/12 02:10:18;;;;;;;14.35;5.78;;;;;;;-3.48;57.50;101865.61;1761723;81;21145;-69
2020/12/12 02:12:51;;;;;;;10.67;5.17;;;;;;;-3.47;57.58;101860.51;1761680;81;21303;-70
2020/12/12 02:15:24;;;;;;;16.87;5.40;;;;;;;-3.48;57.71;101865.19;1762561;81;21273;-69
2020/12/12 02:17:57;;;;;;;9.20;4.57;;;;;;;-3.42;57.78;101858.77;1762273;81;21249;-69
2020/12/12 02:20:30;;;;;;;11.05;5.40;;;;;;;-3.36;57.70;101865.97;1762121;81;21231;-70
2020/12/12 02:23:03;;;;;;;8.57;4.07;;;;;;;-3.37;57.73;101852.34;1761857;81;21260;-70
2020/12/12 02:25:37;;;;;;;11.68;5.10;;;;;;;-3.32;57.78;101851.02;1761011;81;21260;-70
2020/12/12 02:28:13;;;;;;;10.23;4.78;;;;;;;-3.31;57.84;101839.48;1754205;81;21285;-69
2020/12/12 02:30:44;;;;;;;12.20;5.15;;;;;;;-3.31;57.98;101833.50;1727258;81;21301;-69
2020/12/12 02:33:19;;;;;;;9.08;4.67;;;;;;;-3.31;58.08;101833.08;1757462;80;21313;-69
2020/12/12 02:35:52;;;;;;;14.80;5.25;;;;;;;-3.25;58.19;101824.09;1757136;81;21151;-70
2020/12/12 02:38:25;;;;;;;12.45;4.67;;;;;;;-3.22;58.26;101818.09;1758466;81;21780;-71
2020/12/12 02:40:58;;;;;;;11.60;5.47;;;;;;;-3.18;58.30;101812.93;1758022;81;21333;-70
2020/12/12 02:43:31;;;;;;;13.67;5.43;;;;;;;-3.12;58.25;101817.98;1758056;81;21207;-69
2020/12/12 02:46:05;;;;;;;10.80;5.40;;;;;;;-3.07;58.21;101816.67;1757167;81;21847;-69
2020/12/12 02:48:38;;;;;;;12.77;6.00;;;;;;;-3.08;58.28;101820.11;1757327;81;21309;-70
2020/12/12 02:51:11;;;;;;;14.38;5.95;;;;;;;-3.09;58.45;101817.12;1758616;81;21142;-70
2020/12/12 02:53:46;;;;;;;10.32;4.17;;;;;;;-3.11;58.66;101819.70;1758228;81;21249;-72
2020/12/12 02:56:19;;;;;;;13.70;6.12;;;;;;;-3.05;58.80;101827.75;1757753;81;21151;-69
2020/12/12 02:58:52;;;;;;;15.77;5.93;;;;;;;-3.01;58.84;101818.73;1757466;81;21151;-69
2020/12/12 03:01:25;;;;;;;10.85;5.28;;;;;;;-2.94;59.02;101816.54;1758639;81;21257;-68
2020/12/12 03:03:58;;;;;;;12.68;5.17;;;;;;;-2.94;59.39;101822.95;1756074;81;21166;-69
2020/12/12 03:06:31;;;;;;;13.40;5.70;;;;;;;-2.95;59.74;101830.66;1748016;82;21260;-69
2020/12/12 03:09:05;;;;;;;12.60;5.87;;;;;;;-2.91;59.61;101831.03;1747644;82;21246;-69
2020/12/12 03:11:38;;;;;;;14.30;5.83;;;;;;;-2.88;59.51;101824.19;1748612;82;21302;-69
2020/12/12 03:14:11;;;;;;;11.43;5.12;;;;;;;-2.89;59.64;101821.66;1748029;82;21686;-69
2020/12/12 03:16:44;;;;;;;14.28;5.92;;;;;;;-2.88;59.74;101823.33;1747939;82;21337;-69
2020/12/12 03:19:18;;;;;;;17.07;5.47;;;;;;;-2.91;59.82;101821.64;1747578;82;21207;-69
2020/12/12 03:21:50;;;;;;;14.07;5.53;;;;;;;-2.93;60.10;101822.52;1747320;82;21175;-70
2020/12/12 03:24:24;;;;;;;14.25;5.80;;;;;;;-2.92;60.58;101814.84;1748219;82;21155;-70
2020/12/12 03:26:57;;;;;;;13.30;6.03;;;;;;;-2.88;60.89;101813.08;1731283;82;21144;-69
2020/12/12 03:29:30;;;;;;;10.38;5.70;;;;;;;-2.86;61.10;101809.64;1717821;83;21196;-69
2020/12/12 03:32:02;;;;;;;13.95;5.92;;;;;;;-2.87;61.10;101818.64;1717392;83;21319;-70
2020/12/12 03:34:37;;;;;;;12.68;5.62;;;;;;;-2.88;61.13;101803.69;1717129;83;21331;-70
2020/12/12 03:37:09;;;;;;;;;;;;;;;-2.87;61.12;101799.00;1720775;83;21893;-70
2020/12/12 03:39:42;;;;;;;10.03;5.22;;;;;;;-2.84;61.08;101802.78;1717723;83;20246;-69
2020/12/12 03:42:15;;;;;;;8.83;5.33;;;;;;;-2.81;60.96;101792.94;1717395;83;21867;-70
2020/12/12 03:44:48;;;;;;;14.10;5.83;;;;;;;-2.74;60.73;101797.14;1717143;83;21317;-69
2020/12/12 03:47:20;;;;;;;8.50;4.90;;;;;;;-2.76;60.57;101790.76;1718277;83;21362;-70
2020/12/12 03:49:54;;;;;;;13.20;5.33;;;;;;;-2.76;60.69;101789.91;1717964;83;21154;-69
2020/12/12 03:52:27;;;;;;;13.43;5.93;;;;;;;-2.76;60.76;101795.03;1717936;83;21159;-69
2020/12/12 03:55:00;;;;;;;15.40;5.70;;;;;;;-2.78;60.88;101802.74;1718777;83;21186;-70
2020/12/12 03:57:32;;;;;;;11.90;4.97;;;;;;;-2.79;61.01;101796.33;1718600;83;21290;-69
2020/12/12 04:00:07;;;;;;;14.73;5.60;;;;;;;-2.76;61.35;101801.02;1718371;83;21348;-70
2020/12/12 04:02:39;;;;;;;13.20;5.72;;;;;;;-2.80;62.04;101790.80;1717612;83;21301;-70
2020/12/12 04:05:12;;;;;;;15.23;6.10;;;;;;;-2.89;62.65;101821.66;1716178;82;21286;-69
2020/12/12 04:07:45;;;;;;;15.23;5.35;;;;;;;-2.97;63.66;101793.95;1725189;83;21274;-71
2020/12/12 04:10:18;;;;;;;10.85;5.12;;;;;;;-3.04;63.79;101782.06;1730438;83;21784;-69
2020/12/12 04:12:51;;;;;;;11.45;4.95;;;;;;;-3.10;63.95;101780.82;1730908;83;21166;-70
2020/12/12 04:15:24;;;;;;;9.43;4.37;;;;;;;-3.11;64.00;101782.56;1712431;83;21135;-69
2020/12/12 04:17:59;;;;;;;9.78;4.67;;;;;;;-3.10;63.88;101786.80;1730707;83;21815;-70
2020/12/12 04:20:32;;;;;;;11.38;4.67;;;;;;;-3.10;63.65;101776.98;1731154;83;21179;-70
2020/12/12 04:23:05;;;;;;;9.20;5.10;;;;;;;-3.09;63.62;101764.60;1731084;83;21775;-70
2020/12/12 04:25:38;;;;;;;12.70;4.97;;;;;;;-3.07;63.45;101768.85;1733531;82;21310;-66
2020/12/12 04:28:11;;;;;;;8.05;4.25;;;;;;;-3.08;63.51;101776.10;1732930;82;21175;-71
2020/12/12 04:30:44;;;;;;;11.25;4.90;;;;;;;-3.07;63.64;101775.68;1731286;83;21254;-66
2020/12/12 04:36:20;;;;;;;14.97;6.27;;;;;;;-3.08;63.57;101779.13;1741260;82;21165;-69
2020/12/12 04:38:53;;;;;;;13.83;6.12;;;;;;;-3.08;63.55;101775.28;1771457;81;21781;-69
2020/12/12 04:41:26;;;;;;;24.20;6.90;;;;;;;-3.07;63.43;101779.52;1772421;81;21259;-71
2020/12/12 04:43:59;;;;;;;17.60;7.13;;;;;;;-3.08;63.34;101772.27;1771954;81;21172;-70
2020/12/12 04:46:32;;;;;;;19.45;8.48;;;;;;;-3.06;63.41;101777.39;1771905;81;21769;-70
2020/12/12 04:49:06;;;;;;;16.42;8.00;;;;;;;-2.99;63.39;101781.59;1771332;80;21279;-70
2020/12/12 04:51:39;;;;;;;18.95;5.90;;;;;;;-2.97;63.50;101778.58;1772334;81;21259;-69
2020/12/12 04:54:12;;;;;;;29.05;15.10;;;;;;;-2.96;64.14;101773.43;1772021;81;21784;-70
2020/12/12 04:56:44;;;;;;;27.10;8.93;;;;;;;-2.99;64.64;101773.48;1771677;81;21386;-70
2020/12/12 04:59:17;;;;;;;24.92;12.35;;;;;;;-2.99;65.22;101775.19;1771445;81;21674;-70
2020/12/12 05:01:50;;;;;;;15.28;8.88;;;;;;;-3.01;65.61;101795.68;1773013;81;21145;-70
2020/12/12 05:04:23;;;;;;;18.27;8.40;;;;;;;-3.00;65.73;101769.21;1720364;82;21160;-69
2020/12/12 05:06:57;;;;;;;23.38;10.18;;;;;;;-3.02;65.87;101767.09;1772994;81;21646;-69
2020/12/12 05:09:30;;;;;;;17.20;7.35;;;;;;;-3.03;66.01;101783.32;1772521;81;21247;-69
2020/12/12 05:12:02;;;;;;;15.10;6.42;;;;;;;-3.00;65.87;101777.32;1772809;81;21228;-69
2020/12/12 05:14:35;;;;;;;23.50;7.97;;;;;;;-2.99;66.07;101779.89;1776610;81;21160;-67
2020/12/12 05:17:09;;;;;;;17.07;8.08;;;;;;;-3.01;66.11;101779.03;1777284;81;21358;-66
2020/12/12 05:19:42;;;;;;;;;;;;;;;-3.02;66.06;101771.37;1779628;81;21137;-67
2020/12/12 05:22:14;;;;;;;14.00;6.75;;;;;;;-3.01;66.11;101798.24;1776064;81;20607;-71
2020/12/12 05:24:47;;;;;;;14.63;7.47;;;;;;;-3.03;66.97;101780.76;1771130;81;21330;-70
2020/12/12 05:27:20;;;;;;;16.80;7.80;;;;;;;-3.09;68.29;101784.67;1772464;81;21236;-68
2020/12/12 05:29:55;;;;;;;17.40;6.58;;;;;;;-3.12;68.52;101777.43;1772428;81;21980;-69
2020/12/12 05:32:28;;;;;;;11.33;6.33;;;;;;;-3.13;68.06;101776.57;1768413;81;21268;-69
2020/12/12 05:35:02;;;;;;;13.58;6.65;;;;;;;-3.06;67.79;101773.55;1764954;81;21182;-70
2020/12/12 05:37:41;;;;;;;16.70;6.97;;;;;;;-3.02;67.21;101771.37;1765600;81;21257;-69
2020/12/12 05:40:13;;;;;;;24.02;10.08;;;;;;;-3.00;66.98;101773.48;1764878;80;21288;-70
2020/12/12 05:42:47;;;;;;;14.80;6.45;;;;;;;-2.98;66.67;101762.78;1764408;80;21299;-69
2020/12/12 05:45:20;;;;;;;15.30;6.45;;;;;;;-2.98;66.63;101768.76;1764482;81;21209;-70
2020/12/12 05:47:54;;;;;;;18.15;7.10;;;;;;;-2.95;67.76;101764.04;1765624;81;21197;-70
2020/12/12 05:50:27;;;;;;;13.32;6.05;;;;;;;-2.97;67.88;101758.09;1764710;81;21295;-71
2020/12/12 05:53:00;;;;;;;9.35;4.53;;;;;;;-2.97;67.72;101762.78;1765036;81;21296;-69
2020/12/12 05:55:35;;;;;;;12.33;5.47;;;;;;;-2.95;67.71;101751.23;1764852;81;21193;-68
2020/12/12 05:58:07;;;;;;;15.68;7.90;;;;;;;-2.93;67.56;101756.76;1763790;80;21165;-69
2020/12/12 06:00:40;;;;;;;14.37;7.00;;;;;;;-2.88;67.47;101747.31;1765071;81;21814;-70
2020/12/12 06:03:34;;;;;;;16.40;6.50;;;;;;;-2.88;67.39;101760.13;1748413;81;21193;-70
2020/12/12 06:06:07;;;;;;;26.40;13.68;;;;;;;-2.84;67.13;101752.81;1743048;80;21186;-70
2020/12/12 06:08:41;;;;;;;29.83;15.07;;;;;;;-2.81;66.96;101762.19;1765859;81;21739;-69
2020/12/12 06:11:13;;;;;;;;;;;;;;;-2.76;66.60;101765.55;1767244;81;21186;-67
2020/12/12 06:13:46;;;;;;;19.37;8.73;;;;;;;-2.75;66.27;101753.99;1704151;83;20801;-70
2020/12/12 06:16:19;;;;;;;13.05;5.87;;;;;;;-2.78;65.82;101754.47;1697621;84;21166;-68
2020/12/12 06:19:17;;;;;;;16.40;6.45;;;;;;;-2.77;65.73;101751.88;1701290;84;21162;-70
2020/12/12 06:21:51;;;;;;;16.77;7.15;;;;;;;-2.74;65.92;101742.89;1716134;83;21293;-69
2020/12/12 06:24:24;;;;;;;12.85;6.25;;;;;;;-2.69;65.87;101745.40;1699842;84;21186;-70
2020/12/12 06:27:02;;;;;;;30.27;15.75;;;;;;;-2.63;65.83;101749.63;1717726;82;21310;-70
2020/12/12 06:29:46;;;;;;;25.77;12.70;;;;;;;-2.58;65.61;101750.00;1707103;84;21332;-70
2020/12/12 06:32:19;;;;;;;28.73;13.80;;;;;;;-2.55;65.27;101753.78;1713313;83;21293;-68
2020/12/12 06:34:53;;;;;;;48.38;25.88;;;;;;;-2.61;65.17;101753.87;1710197;83;21799;-68
2020/12/12 06:37:28;;;;;;;28.52;13.13;;;;;;;-2.64;65.56;101747.91;1735081;82;21361;-70
2020/12/12 06:40:04;;;;;;;21.42;7.83;;;;;;;-2.66;65.82;101758.19;1697828;84;21284;-70
2020/12/12 06:42:45;;;;;;;26.00;10.65;;;;;;;-2.71;66.12;101758.67;1774306;81;21535;-71
2020/12/12 06:45:23;;;;;;;27.87;14.38;;;;;;;-2.69;66.58;101744.54;1774235;80;21224;-70
2020/12/12 06:47:56;;;;;;;19.48;9.25;;;;;;;-2.71;66.91;101752.27;1774078;81;21291;-69
2020/12/12 06:50:36;;;;;;;20.82;9.20;;;;;;;-2.74;67.17;101742.89;1774774;80;21366;-72
2020/12/12 06:53:19;;;;;;;25.25;10.28;;;;;;;-2.68;67.33;101744.97;1773382;81;21248;-70
2020/12/12 06:56:15;;;;;;;20.90;9.98;;;;;;;-2.65;67.46;101747.05;1774277;81;21284;-70
2020/12/12 06:58:48;;;;;;;23.92;11.43;;;;;;;-2.66;67.49;101740.25;1775408;81;21145;-70
2020/12/12 07:01:33;;;;;;;16.30;8.13;;;;;;;-2.62;67.48;101752.16;1774792;81;21271;-71
2020/12/12 07:04:07;;;;;;;18.17;7.78;;;;;;;-2.59;67.28;101739.73;1774510;81;21157;-70
2020/12/12 07:06:40;;;;;;;18.30;8.85;;;;;;;-2.62;67.25;101738.05;1774292;81;21299;-70
2020/12/12 07:09:13;;;;;;;26.17;12.60;;;;;;;-2.62;67.28;101730.36;1775297;81;21303;-70
2020/12/12 07:11:47;;;;;;;23.85;10.68;;;;;;;-2.62;67.25;101721.81;1774960;81;21315;-71
2020/12/12 07:14:20;;;;;;;21.60;9.28;;;;;;;-2.58;67.24;101724.78;1747189;81;21310;-70
2020/12/12 07:16:58;;;;;;;17.55;8.40;;;;;;;-2.53;67.20;101744.81;1773949;81;21255;-71
2020/12/12 07:19:34;;;;;;;21.33;8.28;;;;;;;-2.48;67.34;101725.92;1775098;81;21282;-70
2020/12/12 07:22:09;;;;;;;16.70;7.87;;;;;;;-2.40;67.68;101731.81;1774539;81;21283;-69
2020/12/12 07:24:42;;;;;;;22.13;8.65;;;;;;;-2.30;68.06;101724.42;1774595;81;21248;-69
2020/12/12 07:27:17;;;;;;;20.00;8.70;;;;;;;-2.21;68.21;101717.88;1774222;81;21233;-70
2020/12/12 07:29:50;;;;;;;17.37;7.47;;;;;;;-2.13;68.23;101725.06;1775295;81;21191;-70
2020/12/12 07:32:22;;;;;;;18.25;7.25;;;;;;;-2.08;68.28;101714.27;1774740;81;21523;-69
2020/12/12 07:35:00;;;;;;;17.50;7.27;;;;;;;-2.05;68.26;101711.67;1774928;81;21257;-70
2020/12/12 07:37:33;;;;;;;15.60;7.53;;;;;;;-2.04;68.24;101721.50;1773274;81;21273;-70
2020/12/12 07:40:06;;;;;;;14.98;6.40;;;;;;;-2.08;68.31;101712.98;1765810;81;21253;-71
2020/12/12 07:42:39;;;;;;;16.73;7.40;;;;;;;-2.08;68.41;101716.83;1766422;81;21258;-71
2020/12/12 07:48:06;;;;;;;17.00;8.00;;;;;;;-2.06;68.48;101729.66;1765934;81;21297;-70
2020/12/12 07:50:39;;;;;;;22.07;8.78;;;;;;;-2.10;68.66;101712.16;1767246;81;21724;-71
2020/12/12 07:53:14;;;;;;;19.42;7.55;;;;;;;-2.08;68.80;101714.73;1766436;81;21823;-70
2020/12/12 07:55:59;;;;;;;20.77;8.38;;;;;;;-2.02;68.85;101711.20;1766229;81;21306;-70
2020/12/12 07:58:35;;;;;;;16.10;7.67;;;;;;;-1.99;68.93;101713.73;1766147;81;21155;-71
2020/12/12 08:01:07;;;;;;;17.52;7.85;;;;;;;-1.97;68.95;101711.56;1765642;81;21190;-70
2020/12/12 08:03:47;;;;;;;24.45;11.08;;;;;;;-1.99;68.82;101703.47;1766242;81;21290;-70
2020/12/12 08:06:20;;;;;;;20.02;8.05;;;;;;;-2.03;68.85;101710.81;1766247;81;21261;-71
2020/12/12 08:08:58;;;;;;;20.60;8.60;;;;;;;-2.01;68.89;101712.48;1765997;81;21199;-70
2020/12/12 08:11:31;;;;;;;18.57;7.97;;;;;;;-1.99;68.82;101701.77;1767203;81;21155;-70
2020/12/12 08:14:05;;;;;;;18.62;8.18;;;;;;;-1.98;68.68;101716.73;1766182;81;21156;-70
2020/12/12 08:16:47;;;;;;;17.80;8.20;;;;;;;-2.00;68.69;101714.59;1765997;81;21149;-71
2020/12/12 08:19:16;;;;;;;20.27;7.85;;;;;;;-1.97;68.78;101697.87;1765588;81;21202;-70
2020/12/12 08:21:52;;;;;;;27.50;12.45;;;;;;;-1.95;68.72;101702.13;1766608;81;21658;-72
2020/12/12 08:24:25;;;;;;;21.73;9.10;;;;;;;-1.95;68.78;101684.16;1743234;81;21143;-74
2020/12/12 08:26:58;;;;;;;18.77;8.55;;;;;;;-1.89;69.00;101685.80;1770217;81;21749;-71
2020/12/12 08:29:34;;;;;;;14.63;6.93;;;;;;;-1.89;69.00;101685.80;1772974;81;21663;-71
2020/12/12 08:32:07;;;;;;;21.90;8.90;;;;;;;-1.87;68.91;101676.34;1747718;81;21908;-69
2020/12/12 08:34:40;;;;;;;24.12;9.50;;;;;;;-1.84;69.01;101672.45;1773595;81;21291;-71
2020/12/12 08:37:18;;;;;;;17.67;8.45;;;;;;;-1.78;69.01;101646.67;1772998;81;21256;-72
2020/12/12 08:39:51;;;;;;;22.52;8.33;;;;;;;-1.70;68.94;101635.86;1771833;80;21205;-69
2020/12/12 08:42:25;;;;;;;22.73;9.20;;;;;;;-1.64;68.85;101662.27;1771999;81;21276;-72
2020/12/12 08:44:59;;;;;;;17.17;8.53;;;;;;;-1.58;68.77;101639.50;1772944;81;21216;-71
2020/12/12 08:47:32;;;;;;;20.02;8.85;;;;;;;-1.54;68.75;101648.84;1766314;81;21264;-70
2020/12/12 08:50:05;;;;;;;21.90;8.93;;;;;;;-1.48;68.69;101644.90;1772974;81;21307;-71
2020/12/12 08:52:42;;;;;;;22.82;10.10;;;;;;;-1.48;68.67;101650.86;1772081;81;21847;-71
2020/12/12 08:55:13;;;;;;;24.15;10.15;;;;;;;-1.48;68.76;101635.91;1773243;81;21311;-70
2020/12/12 08:58:01;;;;;;;24.87;9.68;;;;;;;-1.48;68.95;101634.16;1773383;81;21319;-70
2020/12/12 09:00:33;;;;;;;21.42;10.05;;;;;;;-1.47;69.13;101634.59;1772739;81;21213;-71
2020/12/12 09:03:06;;;;;;;21.57;8.30;;;;;;;-1.45;69.37;101635.40;1772941;81;21256;-70
2020/12/12 09:05:39;;;;;;;19.85;9.65;;;;;;;-1.45;69.55;101617.86;1773339;81;21280;-71
2020/12/12 09:08:19;;;;;;;22.10;8.80;;;;;;;-1.45;69.55;101617.86;1773059;81;21260;-70
2020/12/12 09:10:52;;;;;;;24.72;9.88;;;;;;;-1.48;69.69;101617.47;1772586;81;21169;-71
2020/12/12 09:13:25;;;;;;;18.90;8.80;;;;;;;-1.51;69.87;101609.84;1772368;81;21161;-72
2020/12/12 09:15:58;;;;;;;23.40;11.00;;;;;;;-1.53;70.05;101611.56;1773968;81;21873;-71
2020/12/12 09:18:31;;;;;;;19.50;10.85;;;;;;;-1.51;70.10;101614.98;1772897;81;21591;-72
2020/12/12 09:21:03;;;;;;;21.87;9.40;;;;;;;-1.48;70.17;101614.08;1772825;81;21268;-71
2020/12/12 09:23:36;;;;;;;23.92;10.60;;;;;;;-1.50;70.34;101624.36;1772775;81;21778;-71
2020/12/12 09:26:10;;;;;;;27.25;10.70;;;;;;;-1.54;70.53;101612.45;1770495;81;21238;-69
2020/12/12 09:28:45;;;;;;;22.10;10.40;;;;;;;-1.53;70.67;101620.55;1766766;80;21258;-70
2020/12/12 09:31:20;;;;;;;28.43;13.83;;;;;;;-1.51;70.75;101613.70;1767084;81;21258;-71
2020/12/12 09:33:53;;;;;;;26.85;12.07;;;;;;;-1.46;70.83;101610.58;1766564;81;21351;-71
2020/12/12 09:36:26;;;;;;;29.90;13.75;;;;;;;-1.41;70.79;101613.09;1765887;81;21250;-70
2020/12/12 09:38:58;;;;;;;32.33;14.05;;;;;;;-1.42;70.81;101610.10;1765965;80;21313;-71
2020/12/12 09:41:32;;;;;;;27.52;13.32;;;;;;;-1.40;70.87;101614.77;1771413;80;21323;-71
2020/12/12 09:44:05;;;;;;;35.05;13.50;;;;;;;-1.40;71.04;101619.48;1768286;81;21226;-71
2020/12/12 09:46:38;;;;;;;21.75;10.28;;;;;;;-1.41;71.16;101608.78;1768516;81;21727;-71
2020/12/12 09:49:11;;;;;;;23.85;11.55;;;;;;;-1.40;71.45;101621.19;1768116;81;21320;-71
2020/12/12 09:51:47;;;;;;;28.33;12.03;;;;;;;-1.42;71.59;101598.55;1769759;81;21265;-70
2020/12/12 09:54:20;;;;;;;27.40;12.05;;;;;;;-1.39;71.66;101611.34;1768816;81;21826;-71
2020/12/12 09:56:54;;;;;;;20.35;8.85;;;;;;;-1.39;71.74;101604.48;1768646;81;21313;-71
2020/12/12 09:59:27;;;;;;;20.95;8.65;;;;;;;-1.32;71.83;101592.80;1746937;81;21313;-70
2020/12/12 10:02:02;;;;;;;19.92;7.87;;;;;;;-1.29;71.92;101597.89;1769651;81;21632;-71
2020/12/12 10:04:36;;;;;;;20.77;8.93;;;;;;;-1.28;72.05;101602.13;1769897;81;21776;-72
2020/12/12 10:07:09;;;;;;;22.73;9.08;;;;;;;-1.26;72.34;101578.53;1769427;81;21270;-72
2020/12/12 10:09:42;;;;;;;23.45;8.40;;;;;;;-1.23;72.64;101575.91;1768857;81;21162;-71
2020/12/12 10:12:15;;;;;;;25.50;8.88;;;;;;;-1.18;72.96;101583.09;1768501;81;21190;-71
2020/12/12 10:14:49;;;;;;;20.48;9.00;;;;;;;-1.13;73.37;101609.55;1769243;81;21147;-71
2020/12/12 10:17:23;;;;;;;24.43;9.68;;;;;;;-1.10;74.27;101597.48;1769085;81;21139;-71
2020/12/12 10:19:59;;;;;;;20.68;9.18;;;;;;;-1.09;75.79;101580.34;1774277;78;21255;-72
2020/12/12 10:22:33;;;;;;;23.65;10.82;;;;;;;-1.08;76.80;101598.75;1767905;81;21149;-73
2020/12/12 10:25:08;;;;;;;21.40;9.78;;;;;;;-1.08;78.21;101590.61;1769507;81;21323;-72
2020/12/12 10:27:40;;;;;;;23.32;10.63;;;;;;;-1.08;78.85;101589.75;1769202;81;21154;-72
2020/12/12 10:30:14;;;;;;;25.37;10.40;;;;;;;-1.07;79.13;101601.71;1769538;81;21276;-72
2020/12/12 10:32:47;;;;;;;22.05;10.05;;;;;;;-1.04;79.19;101596.52;1768412;81;21731;-72
2020/12/12 10:35:20;;;;;;;26.75;9.85;;;;;;;-1.03;79.91;101580.23;1769969;81;21775;-70
2020/12/12 10:37:54;;;;;;;19.73;9.18;;;;;;;-1.09;81.20;101594.48;1769851;81;21256;-72
2020/12/12 10:40:32;;;;;;;19.48;8.80;;;;;;;-1.14;82.23;101580.44;1768559;81;21303;-73
2020/12/12 10:43:04;;;;;;;23.80;9.95;;;;;;;-1.18;82.93;101581.38;1769127;80;21654;-72
2020/12/12 10:45:37;;;;;;;21.90;9.25;;;;;;;-1.20;83.21;101597.27;1770424;81;21332;-71
2020/12/12 10:48:10;;;;;;;22.13;9.85;;;;;;;-1.19;83.70;101589.95;1770903;81;21142;-71
2020/12/12 10:50:44;;;;;;;22.40;10.45;;;;;;;-1.17;84.17;101588.20;1769573;81;21296;-71
2020/12/12 10:53:17;;;;;;;25.08;9.53;;;;;;;-1.12;84.38;101580.42;1769097;81;21253;-73
2020/12/12 10:55:50;;;;;;;17.10;7.37;;;;;;;-1.10;84.34;101589.77;1768323;81;21351;-73
2020/12/12 10:58:23;;;;;;;28.90;11.30;;;;;;;-1.11;84.82;101588.53;1770492;81;21347;-73
2020/12/12 11:00:57;;;;;;;21.93;9.30;;;;;;;-1.10;84.91;101574.81;1769449;81;21256;-74
2020/12/12 11:03:30;;;;;;;19.98;9.05;;;;;;;-1.09;84.96;101597.90;1769591;81;21336;-74
2020/12/12 11:06:03;;;;;;;18.45;9.43;;;;;;;-1.09;84.69;101572.20;1769149;81;21796;-73
2020/12/12 11:08:36;;;;;;;24.43;10.25;;;;;;;-1.10;84.35;101587.20;1770301;81;21672;-73
2020/12/12 11:11:09;;;;;;;24.15;8.75;;;;;;;-1.18;84.20;101572.39;1769618;81;21208;-75
2020/12/12 11:13:43;;;;;;;21.87;9.55;;;;;;;-1.18;84.20;101572.39;1755365;81;21253;-73
2020/12/12 11:16:21;;;;;;;21.82;9.08;;;;;;;-1.18;84.32;101583.95;1770805;80;21271;-73
2020/12/12 11:18:56;;;;;;;23.38;10.68;;;;;;;-1.18;84.31;101564.68;1770285;81;21256;-75
2020/12/12 11:21:31;;;;;;;37.60;15.72;;;;;;;-1.17;84.33;101574.53;1769937;81;21256;-74
2020/12/12 11:24:03;;;;;;;19.63;9.27;;;;;;;-1.18;84.66;101576.67;1769691;81;21240;-74
2020/12/12 11:26:36;;;;;;;20.30;9.48;;;;;;;-1.17;84.59;101573.24;1782823;79;21545;-74
2020/12/12 11:29:10;;;;;;;19.85;9.00;;;;;;;-1.19;84.73;101570.69;1802926;79;21145;-73
2020/12/12 11:31:47;;;;;;;19.73;8.70;;;;;;;-1.23;85.65;101593.90;1803468;79;21278;-73
2020/12/12 11:34:31;;;;;;;16.65;8.55;;;;;;;-1.25;85.86;101572.10;1803433;79;21166;-72
2020/12/12 11:40:07;;;;;;;18.10;9.18;;;;;;;-1.18;86.64;101580.53;1802184;79;21441;-74
2020/12/12 11:43:00;;;;;;;22.13;10.53;;;;;;;-1.17;86.42;101562.50;1797204;79;21256;-72
2020/12/12 11:47:49;;;;;;;17.27;9.03;;;;;;;-1.13;86.16;101572.30;1805452;79;21232;-73
2020/12/12 11:50:22;;;;;;;20.43;8.08;;;;;;;-1.11;85.86;101566.68;1807070;79;21268;-71
2020/12/12 11:53:02;;;;;;;40.52;12.07;;;;;;;-1.10;85.35;101607.76;1806548;79;21252;-71
2020/12/12 11:55:30;;;;;;;18.50;8.90;;;;;;;-1.10;84.83;101566.64;1805532;79;21307;-72
2020/12/12 11:58:03;;;;;;;19.00;9.05;;;;;;;-1.08;84.32;101575.63;1806960;79;21252;-70
2020/12/12 12:00:43;;;;;;;17.57;9.08;;;;;;;-1.08;83.82;101582.91;1806877;79;21781;-72